sensor_id;sensor_type;location;lat;lon;timestamp;pressure;altitude;pressure_sealevel;temperature;humidity
51227;BME280;42714;48.260;10.980;2023-05-15T00:01:42;966.2;;;10.6;100.0
51227;BME280;42714;48.260;10.980;2023-05-15T00:06:43;966.1;;;10.7;100.0
51227;BME280;42714;48.260;10.980;2023-05-15T00:11:44;966.0;;;10.7;100.0
51227;BME280;42714;48.260;10.980;2023-05-15T00:16:45;966.0;;;10.7;100.0
51227;BME280;42714;48.260;10.980;2023-05-15T00:21:46;966.0;;;10.7;100.0
51227;BME280;42714;48.260;10.980;2023-05-15T00:26:47;966.0;;;10.8;100.0
51227;BME280;42714;48.260;10.980;2023-05-15T00:31:48;965.9;;;10.7;100.0
51227;BME280;42714;48.260;10.980;2023-05-15T00:36:49;965.9;;;10.6;100.0
51227;BME280;42714;48.260;10.980;2023-05-15T00:41:50;965.9;;;10.6;100.0
51227;BME280;42714;48.260;10.980;2023-05-15T00:46:51;965.8;;;10.6;100.0
51227;BME280;42714;48.260;10.980;2023-05-15T00:51:52;965.8;;;10.6;100.0
51227;BME280;42714;48.260;10.980;2023-05-15T00:56:55;965.7;;;10.6;100.0
51227;BME280;42714;48.260;10.980;2023-05-15T01:01:54;965.7;;;10.5;100.0
51227;BME280;42714;48.260;10.980;2023-05-15T01:06:55;965.7;;;10.5;100.0
51227;BME280;42714;48.260;10.980;2023-05-15T01:11:56;965.7;;;10.3;100.0
51227;BME280;42714;48.260;10.980;2023-05-15T01:16:57;965.6;;;10.3;100.0
51227;BME280;42714;48.260;10.980;2023-05-15T01:32:01;965.5;;;10.1;100.0
51227;BME280;42714;48.260;10.980;2023-05-15T01:37:02;965.6;;;10.0;100.0
51227;BME280;42714;48.260;10.980;2023-05-15T01:42:05;965.5;;;10.1;100.0
51227;BME280;42714;48.260;10.980;2023-05-15T01:47:05;965.5;;;10.1;100.0
51227;BME280;42714;48.260;10.980;2023-05-15T01:52:07;965.5;;;10.1;100.0
51227;BME280;42714;48.260;10.980;2023-05-15T01:57:06;965.5;;;10.2;100.0
51227;BME280;42714;48.260;10.980;2023-05-15T02:02:06;965.6;;;10.3;100.0
51227;BME280;42714;48.260;10.980;2023-05-15T02:07:07;965.6;;;10.4;100.0
51227;BME280;42714;48.260;10.980;2023-05-15T02:12:09;965.6;;;10.5;100.0
51227;BME280;42714;48.260;10.980;2023-05-15T02:17:09;965.7;;;10.5;100.0
51227;BME280;42714;48.260;10.980;2023-05-15T02:22:10;965.6;;;10.6;100.0
51227;BME280;42714;48.260;10.980;2023-05-15T02:27:14;965.6;;;10.5;100.0
51227;BME280;42714;48.260;10.980;2023-05-15T02:32:13;965.6;;;10.4;100.0
51227;BME280;42714;48.260;10.980;2023-05-15T02:37:14;965.6;;;10.4;100.0
51227;BME280;42714;48.260;10.980;2023-05-15T02:42:14;965.6;;;10.4;100.0
51227;BME280;42714;48.260;10.980;2023-05-15T02:47:16;965.6;;;10.3;100.0
51227;BME280;42714;48.260;10.980;2023-05-15T02:52:16;965.6;;;10.3;100.0
51227;BME280;42714;48.260;10.980;2023-05-15T02:57:17;965.6;;;10.3;100.0
51227;BME280;42714;48.260;10.980;2023-05-15T03:02:18;965.6;;;10.3;100.0
51227;BME280;42714;48.260;10.980;2023-05-15T03:07:19;965.5;;;10.2;100.0
51227;BME280;42714;48.260;10.980;2023-05-15T03:12:20;965.5;;;10.3;100.0
51227;BME280;42714;48.260;10.980;2023-05-15T03:17:21;965.5;;;10.2;100.0
51227;BME280;42714;48.260;10.980;2023-05-15T03:22:23;965.5;;;10.2;100.0
51227;BME280;42714;48.260;10.980;2023-05-15T03:27:24;965.5;;;10.2;100.0
51227;BME280;42714;48.260;10.980;2023-05-15T03:32:25;965.4;;;10.2;100.0
51227;BME280;42714;48.260;10.980;2023-05-15T03:37:26;965.4;;;10.2;100.0
51227;BME280;42714;48.260;10.980;2023-05-15T03:42:27;965.5;;;10.3;100.0
51227;BME280;42714;48.260;10.980;2023-05-15T03:47:28;965.5;;;10.3;100.0
51227;BME280;42714;48.260;10.980;2023-05-15T03:52:29;965.6;;;10.4;100.0
51227;BME280;42714;48.260;10.980;2023-05-15T03:57:30;965.6;;;10.4;100.0
51227;BME280;42714;48.260;10.980;2023-05-15T04:02:31;965.6;;;10.4;100.0
51227;BME280;42714;48.260;10.980;2023-05-15T04:07:32;965.5;;;10.4;100.0
51227;BME280;42714;48.260;10.980;2023-05-15T04:12:33;965.5;;;10.4;100.0
51227;BME280;42714;48.260;10.980;2023-05-15T04:17:34;965.5;;;10.4;100.0
51227;BME280;42714;48.260;10.980;2023-05-15T04:22:35;965.6;;;10.5;100.0
51227;BME280;42714;48.260;10.980;2023-05-15T04:27:36;965.6;;;10.6;100.0
51227;BME280;42714;48.260;10.980;2023-05-15T04:32:37;965.5;;;10.7;100.0
51227;BME280;42714;48.260;10.980;2023-05-15T04:37:38;965.6;;;10.8;100.0
51227;BME280;42714;48.260;10.980;2023-05-15T04:42:39;965.5;;;10.9;100.0
51227;BME280;42714;48.260;10.980;2023-05-15T04:47:40;965.6;;;11.0;100.0
51227;BME280;42714;48.260;10.980;2023-05-15T04:52:41;965.6;;;11.2;100.0
51227;BME280;42714;48.260;10.980;2023-05-15T04:57:42;965.6;;;11.4;100.0
51227;BME280;42714;48.260;10.980;2023-05-15T05:02:43;965.6;;;11.6;100.0
51227;BME280;42714;48.260;10.980;2023-05-15T05:07:44;965.6;;;11.8;100.0
51227;BME280;42714;48.260;10.980;2023-05-15T05:12:45;965.6;;;12.1;100.0
51227;BME280;42714;48.260;10.980;2023-05-15T05:17:46;965.6;;;12.7;100.0
51227;BME280;42714;48.260;10.980;2023-05-15T05:22:47;965.6;;;13.4;100.0
51227;BME280;42714;48.260;10.980;2023-05-15T05:27:48;965.6;;;14.0;100.0
51227;BME280;42714;48.260;10.980;2023-05-15T05:32:49;965.6;;;14.5;100.0
51227;BME280;42714;48.260;10.980;2023-05-15T05:37:50;965.6;;;14.7;100.0
51227;BME280;42714;48.260;10.980;2023-05-15T05:42:51;965.6;;;15.2;100.0
51227;BME280;42714;48.260;10.980;2023-05-15T05:47:54;965.7;;;15.6;100.0
51227;BME280;42714;48.260;10.980;2023-05-15T05:52:53;965.7;;;15.6;100.0
51227;BME280;42714;48.260;10.980;2023-05-15T05:57:54;965.7;;;15.3;100.0
51227;BME280;42714;48.260;10.980;2023-05-15T06:02:55;965.7;;;15.1;100.0
51227;BME280;42714;48.260;10.980;2023-05-15T06:07:56;965.7;;;14.9;100.0
51227;BME280;42714;48.260;10.980;2023-05-15T06:12:57;965.8;;;14.8;100.0
51227;BME280;42714;48.260;10.980;2023-05-15T06:17:58;965.8;;;14.6;100.0
51227;BME280;42714;48.260;10.980;2023-05-15T06:22:59;965.7;;;14.2;100.0
51227;BME280;42714;48.260;10.980;2023-05-15T06:28:00;965.7;;;14.1;100.0
51227;BME280;42714;48.260;10.980;2023-05-15T06:33:01;965.8;;;14.1;100.0
51227;BME280;42714;48.260;10.980;2023-05-15T06:38:02;965.9;;;14.4;100.0
51227;BME280;42714;48.260;10.980;2023-05-15T06:43:03;965.9;;;14.6;100.0
51227;BME280;42714;48.260;10.980;2023-05-15T06:48:04;965.9;;;14.7;100.0
51227;BME280;42714;48.260;10.980;2023-05-15T06:53:05;965.9;;;14.8;100.0
51227;BME280;42714;48.260;10.980;2023-05-15T06:58:06;965.9;;;14.8;100.0
51227;BME280;42714;48.260;10.980;2023-05-15T07:03:07;965.9;;;14.8;100.0
51227;BME280;42714;48.260;10.980;2023-05-15T07:08:08;965.9;;;14.9;100.0
51227;BME280;42714;48.260;10.980;2023-05-15T07:13:09;965.9;;;15.0;100.0
51227;BME280;42714;48.260;10.980;2023-05-15T07:18:10;965.9;;;15.6;100.0
51227;BME280;42714;48.260;10.980;2023-05-15T07:23:11;965.8;;;17.5;100.0
51227;BME280;42714;48.260;10.980;2023-05-15T07:28:12;965.7;;;19.5;100.0
51227;BME280;42714;48.260;10.980;2023-05-15T07:33:13;965.7;;;19.0;100.0
51227;BME280;42714;48.260;10.980;2023-05-15T07:38:14;965.7;;;18.2;100.0
51227;BME280;42714;48.260;10.980;2023-05-15T07:43:15;965.7;;;18.3;100.0
51227;BME280;42714;48.260;10.980;2023-05-15T07:48:16;965.7;;;18.2;100.0
51227;BME280;42714;48.260;10.980;2023-05-15T07:53:17;965.7;;;18.0;100.0
51227;BME280;42714;48.260;10.980;2023-05-15T07:58:18;965.6;;;18.5;100.0
51227;BME280;42714;48.260;10.980;2023-05-15T08:03:19;965.6;;;17.8;100.0
51227;BME280;42714;48.260;10.980;2023-05-15T08:08:20;965.5;;;18.7;100.0
51227;BME280;42714;48.260;10.980;2023-05-15T08:13:21;965.5;;;20.5;100.0
51227;BME280;42714;48.260;10.980;2023-05-15T08:18:22;965.5;;;20.2;100.0
51227;BME280;42714;48.260;10.980;2023-05-15T08:23:23;965.6;;;20.1;100.0
51227;BME280;42714;48.260;10.980;2023-05-15T08:28:24;965.5;;;19.8;100.0
51227;BME280;42714;48.260;10.980;2023-05-15T08:33:25;965.6;;;19.9;100.0
51227;BME280;42714;48.260;10.980;2023-05-15T08:38:26;965.6;;;20.5;100.0
51227;BME280;42714;48.260;10.980;2023-05-15T08:43:27;965.5;;;22.2;94.9
51227;BME280;42714;48.260;10.980;2023-05-15T08:48:28;965.4;;;24.5;69.9
51227;BME280;42714;48.260;10.980;2023-05-15T08:53:29;965.3;;;26.2;52.2
51227;BME280;42714;48.260;10.980;2023-05-15T08:58:30;965.3;;;27.6;46.4
51227;BME280;42714;48.260;10.980;2023-05-15T09:03:31;965.3;;;27.7;42.6
51227;BME280;42714;48.260;10.980;2023-05-15T09:08:32;965.3;;;27.2;45.2
51227;BME280;42714;48.260;10.980;2023-05-15T09:13:33;965.2;;;26.9;44.7
51227;BME280;42714;48.260;10.980;2023-05-15T09:18:34;965.2;;;26.9;42.9
51227;BME280;42714;48.260;10.980;2023-05-15T09:23:35;965.1;;;26.8;42.4
51227;BME280;42714;48.260;10.980;2023-05-15T09:28:36;965.3;;;25.2;48.9
51227;BME280;42714;48.260;10.980;2023-05-15T09:33:38;965.2;;;24.9;47.7
51227;BME280;42714;48.260;10.980;2023-05-15T09:38:39;965.1;;;25.0;50.7
51227;BME280;42714;48.260;10.980;2023-05-15T09:43:39;965.1;;;24.7;50.3
51227;BME280;42714;48.260;10.980;2023-05-15T09:48:40;964.9;;;27.1;44.4
51227;BME280;42714;48.260;10.980;2023-05-15T09:53:41;964.9;;;29.1;38.9
51227;BME280;42714;48.260;10.980;2023-05-15T10:03:43;964.8;;;30.7;33.2
51227;BME280;42714;48.260;10.980;2023-05-15T10:08:49;964.9;;;26.2;41.6
51227;BME280;42714;48.260;10.980;2023-05-15T10:13:45;964.9;;;24.5;50.3
51227;BME280;42714;48.260;10.980;2023-05-15T10:18:46;965.0;;;23.8;60.5
51227;BME280;42714;48.260;10.980;2023-05-15T10:23:47;964.8;;;24.9;59.1
51227;BME280;42714;48.260;10.980;2023-05-15T10:28:48;964.7;;;27.5;38.6
51227;BME280;42714;48.260;10.980;2023-05-15T10:33:50;964.6;;;28.4;34.2
51227;BME280;42714;48.260;10.980;2023-05-15T10:38:50;964.6;;;27.6;37.6
51227;BME280;42714;48.260;10.980;2023-05-15T10:43:52;964.6;;;25.1;42.9
51227;BME280;42714;48.260;10.980;2023-05-15T10:48:52;964.6;;;22.6;61.8
51227;BME280;42714;48.260;10.980;2023-05-15T10:53:54;964.6;;;21.5;65.3
51227;BME280;42714;48.260;10.980;2023-05-15T10:58:54;964.6;;;20.9;72.3
51227;BME280;42714;48.260;10.980;2023-05-15T11:09:31;964.5;;;25.6;51.0
51227;BME280;42714;48.260;10.980;2023-05-15T11:18:58;964.3;;;27.3;40.0
51227;BME280;42714;48.260;10.980;2023-05-15T11:24:02;964.4;;;27.9;36.6
51227;BME280;42714;48.260;10.980;2023-05-15T11:29:15;964.4;;;27.3;36.6
51227;BME280;42714;48.260;10.980;2023-05-15T11:34:03;964.5;;;25.9;38.0
51227;BME280;42714;48.260;10.980;2023-05-15T11:39:02;964.5;;;25.3;38.5
51227;BME280;42714;48.260;10.980;2023-05-15T11:44:03;964.4;;;26.3;35.8
51227;BME280;42714;48.260;10.980;2023-05-15T11:49:04;964.3;;;28.1;35.5
51227;BME280;42714;48.260;10.980;2023-05-15T11:54:05;964.4;;;29.4;32.1
51227;BME280;42714;48.260;10.980;2023-05-15T11:59:06;964.2;;;32.3;26.4
51227;BME280;42714;48.260;10.980;2023-05-15T12:14:10;964.1;;;31.4;30.1
51227;BME280;42714;48.260;10.980;2023-05-15T12:19:10;964.1;;;31.7;27.7
51227;BME280;42714;48.260;10.980;2023-05-15T12:24:11;964.0;;;32.2;27.4
51227;BME280;42714;48.260;10.980;2023-05-15T12:29:12;964.1;;;32.7;25.2
51227;BME280;42714;48.260;10.980;2023-05-15T12:34:13;964.1;;;31.9;26.9
51227;BME280;42714;48.260;10.980;2023-05-15T12:39:14;964.1;;;31.7;25.5
51227;BME280;42714;48.260;10.980;2023-05-15T12:44:16;964.1;;;30.0;28.1
51227;BME280;42714;48.260;10.980;2023-05-15T12:49:20;964.3;;;29.7;31.4
51227;BME280;42714;48.260;10.980;2023-05-15T12:54:18;964.4;;;26.9;31.6
51227;BME280;42714;48.260;10.980;2023-05-15T12:59:18;964.5;;;22.7;39.8
51227;BME280;42714;48.260;10.980;2023-05-15T13:04:19;964.9;;;19.4;64.4
51227;BME280;42714;48.260;10.980;2023-05-15T13:09:20;965.2;;;16.9;100.0
51227;BME280;42714;48.260;10.980;2023-05-15T13:14:21;965.2;;;14.5;100.0
51227;BME280;42714;48.260;10.980;2023-05-15T13:19:22;965.1;;;13.0;100.0
51227;BME280;42714;48.260;10.980;2023-05-15T13:24:23;965.1;;;12.0;100.0
51227;BME280;42714;48.260;10.980;2023-05-15T13:29:24;965.2;;;11.6;100.0
51227;BME280;42714;48.260;10.980;2023-05-15T13:34:25;965.2;;;11.3;100.0
51227;BME280;42714;48.260;10.980;2023-05-15T13:39:26;965.2;;;11.3;100.0
51227;BME280;42714;48.260;10.980;2023-05-15T13:44:27;965.2;;;11.5;100.0
51227;BME280;42714;48.260;10.980;2023-05-15T13:49:28;965.0;;;11.9;100.0
51227;BME280;42714;48.260;10.980;2023-05-15T13:54:30;965.0;;;12.6;100.0
51227;BME280;42714;48.260;10.980;2023-05-15T13:59:30;965.1;;;14.2;100.0
51227;BME280;42714;48.260;10.980;2023-05-15T14:04:31;965.1;;;15.5;100.0
51227;BME280;42714;48.260;10.980;2023-05-15T14:09:32;965.2;;;16.0;100.0
51227;BME280;42714;48.260;10.980;2023-05-15T14:14:33;965.2;;;17.0;100.0
51227;BME280;42714;48.260;10.980;2023-05-15T14:19:34;965.2;;;16.8;100.0
51227;BME280;42714;48.260;10.980;2023-05-15T14:24:35;965.3;;;16.5;100.0
51227;BME280;42714;48.260;10.980;2023-05-15T14:29:37;965.4;;;16.6;100.0
51227;BME280;42714;48.260;10.980;2023-05-15T14:34:37;965.4;;;16.4;100.0
51227;BME280;42714;48.260;10.980;2023-05-15T14:39:38;965.4;;;16.0;100.0
51227;BME280;42714;48.260;10.980;2023-05-15T14:44:39;965.3;;;15.7;100.0
51227;BME280;42714;48.260;10.980;2023-05-15T14:49:40;965.3;;;15.5;100.0
51227;BME280;42714;48.260;10.980;2023-05-15T14:54:41;965.3;;;15.4;100.0
51227;BME280;42714;48.260;10.980;2023-05-15T14:59:42;965.2;;;15.2;100.0
51227;BME280;42714;48.260;10.980;2023-05-15T15:04:43;965.2;;;15.1;100.0
51227;BME280;42714;48.260;10.980;2023-05-15T15:09:44;965.1;;;15.1;100.0
51227;BME280;42714;48.260;10.980;2023-05-15T15:14:45;965.1;;;15.1;100.0
51227;BME280;42714;48.260;10.980;2023-05-15T15:19:46;965.1;;;14.6;100.0
51227;BME280;42714;48.260;10.980;2023-05-15T15:24:47;965.2;;;13.7;100.0
51227;BME280;42714;48.260;10.980;2023-05-15T15:29:48;965.3;;;13.2;100.0
51227;BME280;42714;48.260;10.980;2023-05-15T15:34:49;965.3;;;13.2;100.0
51227;BME280;42714;48.260;10.980;2023-05-15T15:39:50;965.3;;;13.2;100.0
51227;BME280;42714;48.260;10.980;2023-05-15T15:44:52;965.4;;;13.5;100.0
51227;BME280;42714;48.260;10.980;2023-05-15T15:49:52;965.4;;;13.6;100.0
51227;BME280;42714;48.260;10.980;2023-05-15T15:54:53;965.4;;;13.8;100.0
51227;BME280;42714;48.260;10.980;2023-05-15T15:59:54;965.3;;;13.9;100.0
51227;BME280;42714;48.260;10.980;2023-05-15T16:04:55;965.4;;;14.0;100.0
51227;BME280;42714;48.260;10.980;2023-05-15T16:09:56;965.4;;;14.0;100.0
51227;BME280;42714;48.260;10.980;2023-05-15T16:14:57;965.5;;;14.5;100.0
51227;BME280;42714;48.260;10.980;2023-05-15T16:19:58;965.5;;;14.6;100.0
51227;BME280;42714;48.260;10.980;2023-05-15T16:24:59;965.4;;;14.4;100.0
51227;BME280;42714;48.260;10.980;2023-05-15T16:30:00;965.5;;;14.1;100.0
51227;BME280;42714;48.260;10.980;2023-05-15T16:35:01;965.5;;;14.1;100.0
51227;BME280;42714;48.260;10.980;2023-05-15T16:40:02;965.5;;;14.1;100.0
51227;BME280;42714;48.260;10.980;2023-05-15T16:55:07;965.6;;;14.5;100.0
51227;BME280;42714;48.260;10.980;2023-05-15T17:05:08;965.7;;;14.7;100.0
51227;BME280;42714;48.260;10.980;2023-05-15T17:10:09;965.7;;;14.7;100.0
51227;BME280;42714;48.260;10.980;2023-05-15T17:15:09;965.8;;;14.7;100.0
51227;BME280;42714;48.260;10.980;2023-05-15T17:20:11;965.8;;;15.0;100.0
51227;BME280;42714;48.260;10.980;2023-05-15T17:25:11;965.9;;;15.3;100.0
51227;BME280;42714;48.260;10.980;2023-05-15T17:30:12;965.9;;;15.4;100.0
51227;BME280;42714;48.260;10.980;2023-05-15T17:35:13;965.8;;;15.2;100.0
51227;BME280;42714;48.260;10.980;2023-05-15T17:40:14;965.9;;;15.0;100.0
51227;BME280;42714;48.260;10.980;2023-05-15T17:45:15;965.9;;;15.0;100.0
51227;BME280;42714;48.260;10.980;2023-05-15T17:50:16;965.8;;;14.9;100.0
51227;BME280;42714;48.260;10.980;2023-05-15T17:55:17;965.8;;;14.8;100.0
51227;BME280;42714;48.260;10.980;2023-05-15T18:00:19;965.8;;;14.6;100.0
51227;BME280;42714;48.260;10.980;2023-05-15T18:05:19;965.8;;;14.5;100.0
51227;BME280;42714;48.260;10.980;2023-05-15T18:10:20;965.8;;;14.3;100.0
51227;BME280;42714;48.260;10.980;2023-05-15T18:15:21;965.9;;;14.1;100.0
51227;BME280;42714;48.260;10.980;2023-05-15T18:20:22;966.0;;;14.0;100.0
51227;BME280;42714;48.260;10.980;2023-05-15T18:25:23;966.1;;;14.0;100.0
51227;BME280;42714;48.260;10.980;2023-05-15T18:30:24;966.1;;;13.9;100.0
51227;BME280;42714;48.260;10.980;2023-05-15T18:35:25;966.1;;;13.8;100.0
51227;BME280;42714;48.260;10.980;2023-05-15T18:40:26;966.1;;;13.7;100.0
51227;BME280;42714;48.260;10.980;2023-05-15T18:45:27;966.1;;;13.6;100.0
51227;BME280;42714;48.260;10.980;2023-05-15T18:50:28;966.1;;;13.4;100.0
51227;BME280;42714;48.260;10.980;2023-05-15T18:55:29;966.2;;;13.1;100.0
51227;BME280;42714;48.260;10.980;2023-05-15T19:00:30;966.2;;;12.8;100.0
51227;BME280;42714;48.260;10.980;2023-05-15T19:05:31;966.2;;;12.6;100.0
51227;BME280;42714;48.260;10.980;2023-05-15T19:10:32;966.3;;;12.4;100.0
51227;BME280;42714;48.260;10.980;2023-05-15T19:15:33;966.4;;;12.2;100.0
51227;BME280;42714;48.260;10.980;2023-05-15T19:20:34;966.4;;;12.1;100.0
51227;BME280;42714;48.260;10.980;2023-05-15T19:25:35;966.5;;;11.9;100.0
51227;BME280;42714;48.260;10.980;2023-05-15T19:30:36;966.5;;;11.8;100.0
51227;BME280;42714;48.260;10.980;2023-05-15T19:35:37;966.5;;;11.7;100.0
51227;BME280;42714;48.260;10.980;2023-05-15T19:40:41;966.5;;;11.7;100.0
51227;BME280;42714;48.260;10.980;2023-05-15T19:45:39;966.6;;;11.6;100.0
51227;BME280;42714;48.260;10.980;2023-05-15T19:50:41;966.6;;;11.5;100.0
51227;BME280;42714;48.260;10.980;2023-05-15T19:55:41;966.7;;;11.4;100.0
51227;BME280;42714;48.260;10.980;2023-05-15T20:00:43;966.7;;;11.3;100.0
51227;BME280;42714;48.260;10.980;2023-05-15T20:05:44;966.7;;;11.2;100.0
51227;BME280;42714;48.260;10.980;2023-05-15T20:10:49;966.6;;;11.1;100.0
51227;BME280;42714;48.260;10.980;2023-05-15T20:15:46;966.7;;;10.9;100.0
51227;BME280;42714;48.260;10.980;2023-05-15T20:20:47;966.7;;;10.8;100.0
51227;BME280;42714;48.260;10.980;2023-05-15T20:25:48;966.6;;;10.8;100.0
51227;BME280;42714;48.260;10.980;2023-05-15T20:30:49;966.6;;;10.7;100.0
51227;BME280;42714;48.260;10.980;2023-05-15T20:35:50;966.7;;;10.7;100.0
51227;BME280;42714;48.260;10.980;2023-05-15T20:40:51;966.7;;;10.6;100.0
51227;BME280;42714;48.260;10.980;2023-05-15T20:45:52;966.6;;;10.5;100.0
51227;BME280;42714;48.260;10.980;2023-05-15T20:50:53;966.6;;;10.4;100.0
51227;BME280;42714;48.260;10.980;2023-05-15T20:55:54;966.6;;;10.4;100.0
51227;BME280;42714;48.260;10.980;2023-05-15T21:00:55;966.7;;;10.3;100.0
51227;BME280;42714;48.260;10.980;2023-05-15T21:05:56;966.6;;;10.3;100.0
51227;BME280;42714;48.260;10.980;2023-05-15T21:10:57;966.6;;;10.2;100.0
51227;BME280;42714;48.260;10.980;2023-05-15T21:15:58;966.6;;;10.2;100.0
51227;BME280;42714;48.260;10.980;2023-05-15T21:20:59;966.6;;;10.1;100.0
51227;BME280;42714;48.260;10.980;2023-05-15T21:26:00;966.6;;;10.0;100.0
51227;BME280;42714;48.260;10.980;2023-05-15T21:31:04;966.6;;;9.9;100.0
51227;BME280;42714;48.260;10.980;2023-05-15T21:36:02;966.6;;;9.9;100.0
51227;BME280;42714;48.260;10.980;2023-05-15T21:41:03;966.7;;;9.8;100.0
51227;BME280;42714;48.260;10.980;2023-05-15T21:46:04;966.7;;;9.8;100.0
51227;BME280;42714;48.260;10.980;2023-05-15T21:51:05;966.7;;;9.7;100.0
51227;BME280;42714;48.260;10.980;2023-05-15T21:56:06;966.7;;;9.6;100.0
51227;BME280;42714;48.260;10.980;2023-05-15T22:01:07;966.7;;;9.4;100.0
51227;BME280;42714;48.260;10.980;2023-05-15T22:06:08;966.8;;;9.3;100.0
51227;BME280;42714;48.260;10.980;2023-05-15T22:11:09;966.8;;;9.2;100.0
51227;BME280;42714;48.260;10.980;2023-05-15T22:16:10;966.9;;;9.1;100.0
51227;BME280;42714;48.260;10.980;2023-05-15T22:21:11;967.0;;;9.0;100.0
51227;BME280;42714;48.260;10.980;2023-05-15T22:26:12;967.0;;;8.9;100.0
51227;BME280;42714;48.260;10.980;2023-05-15T22:31:13;967.0;;;8.9;100.0
51227;BME280;42714;48.260;10.980;2023-05-15T22:36:14;967.1;;;8.9;100.0
51227;BME280;42714;48.260;10.980;2023-05-15T22:41:15;967.1;;;8.9;100.0
51227;BME280;42714;48.260;10.980;2023-05-15T22:46:16;967.1;;;8.9;100.0
51227;BME280;42714;48.260;10.980;2023-05-15T22:51:17;967.1;;;8.8;100.0
51227;BME280;42714;48.260;10.980;2023-05-15T22:56:18;967.1;;;8.7;100.0
51227;BME280;42714;48.260;10.980;2023-05-15T23:01:19;967.1;;;8.7;100.0
51227;BME280;42714;48.260;10.980;2023-05-15T23:06:20;967.0;;;8.7;100.0
51227;BME280;42714;48.260;10.980;2023-05-15T23:11:21;967.0;;;8.6;100.0
51227;BME280;42714;48.260;10.980;2023-05-15T23:16:22;967.0;;;8.6;100.0
51227;BME280;42714;48.260;10.980;2023-05-15T23:21:23;967.1;;;8.6;100.0
51227;BME280;42714;48.260;10.980;2023-05-15T23:26:24;967.0;;;8.6;100.0
51227;BME280;42714;48.260;10.980;2023-05-15T23:31:25;967.0;;;8.6;100.0
51227;BME280;42714;48.260;10.980;2023-05-15T23:36:26;966.9;;;8.6;100.0
51227;BME280;42714;48.260;10.980;2023-05-15T23:41:27;966.9;;;8.7;100.0
51227;BME280;42714;48.260;10.980;2023-05-15T23:46:28;966.9;;;8.7;100.0
51227;BME280;42714;48.260;10.980;2023-05-15T23:51:29;966.8;;;8.6;100.0
51227;BME280;42714;48.260;10.980;2023-05-15T23:56:30;966.9;;;8.5;100.0
